createdAt,value
2018-02-12T00:00:24.861Z,1.50
2018-02-12T00:02:51.340Z,1.40
2018-02-12T00:05:17.890Z,1.90
2018-02-12T00:07:44.705Z,1.40
2018-02-12T00:10:11.202Z,1.40
2018-02-12T00:12:38.514Z,1.40
2018-02-12T00:15:05.516Z,1.20
2018-02-12T00:17:32.123Z,1.10
2018-02-12T00:19:58.938Z,1.10
2018-02-12T00:22:27.794Z,1.10
2018-02-12T00:25:01.968Z,1.20
2018-02-12T00:27:29.603Z,1.10
2018-02-12T00:29:56.884Z,1.10
2018-02-12T00:32:23.395Z,1.20
2018-02-12T00:34:50.106Z,1.20
2018-02-12T00:37:16.580Z,1.40
2018-02-12T00:39:43.073Z,1.20
2018-02-12T00:42:09.667Z,1.30
2018-02-12T00:44:36.125Z,1.20
2018-02-12T00:47:02.736Z,1.10
2018-02-12T00:49:29.255Z,1.10
2018-02-12T00:51:55.649Z,1.00
2018-02-12T00:54:22.925Z,0.90
2018-02-12T00:56:50.442Z,0.90
2018-02-12T00:59:17.652Z,1.00
2018-02-12T01:01:44.156Z,1.00
2018-02-12T01:04:10.817Z,1.00
2018-02-12T01:06:37.399Z,0.90
2018-02-12T01:09:04.093Z,1.00
2018-02-12T01:11:30.750Z,0.60
2018-02-12T01:13:57.553Z,1.00
2018-02-12T01:16:24.793Z,0.90
2018-02-12T01:18:52.660Z,0.80
2018-02-12T01:21:19.281Z,1.00
2018-02-12T01:23:47.384Z,0.80
2018-02-12T01:26:14.344Z,1.00
2018-02-12T01:28:40.760Z,0.90
2018-02-12T01:31:07.282Z,0.90
2018-02-12T01:33:34.841Z,0.80
2018-02-12T01:36:01.858Z,0.80
2018-02-12T01:38:28.565Z,0.90
2018-02-12T01:40:55.429Z,0.90
2018-02-12T01:43:22.279Z,0.80
2018-02-12T01:45:49.907Z,0.70
2018-02-12T01:48:16.790Z,0.80
2018-02-12T01:50:43.228Z,0.90
2018-02-12T01:53:09.718Z,0.80
2018-02-12T01:55:36.403Z,0.70
2018-02-12T01:58:02.896Z,0.90
2018-02-12T02:00:29.385Z,0.80
2018-02-12T02:02:56.911Z,0.70
2018-02-12T02:05:23.340Z,0.70
2018-02-12T02:07:49.803Z,0.70
2018-02-12T02:10:16.316Z,0.90
2018-02-12T02:15:11.025Z,0.60
2018-02-12T02:17:38.149Z,1.20
2018-02-12T02:20:05.013Z,0.60
2018-02-12T02:22:31.502Z,0.50
2018-02-12T02:24:58.909Z,0.70
2018-02-12T02:27:25.351Z,0.70
2018-02-12T02:29:51.891Z,0.60
2018-02-12T02:32:18.465Z,0.70
2018-02-12T02:34:44.982Z,0.40
2018-02-12T02:37:11.481Z,1.00
2018-02-12T02:39:38.046Z,0.60
2018-02-12T02:42:04.509Z,0.70
2018-02-12T02:44:30.978Z,0.60
2018-02-12T02:46:57.704Z,0.70
2018-02-12T02:49:24.317Z,0.60
2018-02-12T02:51:52.341Z,0.50
2018-02-12T02:54:20.237Z,0.50
2018-02-12T02:56:46.745Z,0.60
2018-02-12T02:59:13.316Z,0.50
2018-02-12T03:01:41.515Z,0.30
2018-02-12T03:04:08.952Z,0.50
2018-02-12T03:06:37.008Z,0.60
2018-02-12T03:09:04.021Z,0.50
2018-02-12T03:11:30.526Z,0.60
2018-02-12T03:13:57.052Z,0.50
2018-02-12T03:16:23.814Z,0.40
2018-02-12T03:18:50.480Z,0.50
2018-02-12T03:21:16.930Z,0.40
2018-02-12T03:23:43.592Z,0.30
2018-02-12T03:26:10.220Z,0.50
2018-02-12T03:28:36.781Z,0.40
2018-02-12T03:31:23.462Z,0.40
2018-02-12T03:33:50.006Z,0.40
2018-02-12T03:36:16.585Z,0.50
2018-02-12T03:38:43.912Z,0.40
2018-02-12T03:41:11.198Z,0.40
2018-02-12T03:43:37.674Z,0.40
2018-02-12T03:46:06.030Z,0.40
2018-02-12T03:48:32.630Z,0.40
2018-02-12T03:50:59.145Z,0.40
2018-02-12T03:53:25.810Z,0.50
2018-02-12T03:55:52.234Z,0.40
2018-02-12T03:58:18.675Z,0.60
2018-02-12T04:00:45.207Z,0.60
2018-02-12T04:03:12.485Z,0.50
2018-02-12T04:05:38.955Z,0.50
2018-02-12T04:08:05.541Z,0.40
2018-02-12T04:10:32.069Z,0.40
2018-02-12T04:12:58.592Z,0.30
2018-02-12T04:15:26.138Z,0.50
2018-02-12T04:17:52.663Z,0.50
2018-02-12T04:20:19.200Z,0.50
2018-02-12T04:22:47.044Z,0.40
2018-02-12T04:25:13.556Z,0.50
2018-02-12T04:27:40.961Z,0.40
2018-02-12T04:30:08.616Z,0.40
2018-02-12T04:32:35.294Z,0.50
2018-02-12T04:35:01.850Z,0.60
2018-02-12T04:37:29.170Z,0.40
2018-02-12T04:39:56.430Z,0.40
2018-02-12T04:42:23.039Z,0.60
2018-02-12T04:44:50.281Z,0.50
2018-02-12T04:47:17.120Z,0.60
2018-02-12T04:49:43.637Z,0.60
2018-02-12T04:52:12.118Z,0.60
2018-02-12T04:54:39.364Z,0.70
2018-02-12T04:57:06.026Z,0.80
2018-02-12T04:59:32.926Z,0.70
2018-02-12T05:01:59.441Z,0.60
2018-02-12T05:04:26.095Z,0.70
2018-02-12T05:06:53.629Z,0.70
2018-02-12T05:09:21.105Z,0.70
2018-02-12T05:11:47.710Z,0.70
2018-02-12T05:14:14.501Z,0.80
2018-02-12T05:16:41.831Z,0.80
2018-02-12T05:19:08.370Z,1.00
2018-02-12T05:21:35.098Z,1.00
2018-02-12T05:24:01.652Z,1.00
2018-02-12T05:26:28.605Z,1.10
2018-02-12T05:28:55.655Z,0.90
2018-02-12T05:31:23.832Z,1.10
2018-02-12T05:33:52.065Z,1.20
2018-02-12T05:36:18.929Z,1.10
2018-02-12T05:38:46.755Z,1.10
2018-02-12T05:41:14.368Z,1.00
2018-02-12T05:43:42.122Z,1.30
2018-02-12T05:46:08.863Z,0.80
2018-02-12T05:48:35.432Z,0.80
2018-02-12T05:51:03.066Z,0.90
2018-02-12T05:53:30.756Z,0.80
2018-02-12T05:55:58.063Z,0.80
2018-02-12T06:03:21.511Z,0.90
2018-02-12T06:05:49.537Z,1.00
2018-02-12T06:08:16.170Z,0.90
2018-02-12T06:10:44.778Z,1.00
2018-02-12T06:13:11.570Z,1.00
2018-02-12T06:15:38.892Z,1.00
2018-02-12T06:18:05.590Z,1.00
2018-02-12T06:20:32.680Z,1.00
2018-02-12T06:22:59.554Z,1.10
2018-02-12T06:25:26.994Z,1.00
2018-02-12T06:27:54.842Z,0.80
2018-02-12T06:30:22.163Z,1.00
2018-02-12T06:32:48.833Z,1.10
2018-02-12T06:35:17.189Z,1.00
2018-02-12T06:37:44.046Z,1.10
2018-02-12T06:40:11.314Z,1.10
2018-02-12T06:42:38.326Z,1.10
2018-02-12T06:45:06.906Z,1.20
2018-02-12T06:47:35.139Z,1.20
2018-02-12T06:50:03.475Z,1.30
2018-02-12T06:52:29.991Z,1.10
2018-02-12T06:54:57.234Z,1.30
2018-02-12T06:57:24.295Z,1.40
2018-02-12T06:59:51.511Z,1.30
2018-02-12T07:02:18.056Z,1.40
2018-02-12T07:04:44.614Z,1.50
2018-02-12T07:07:12.279Z,1.40
2018-02-12T07:09:39.242Z,1.40
2018-02-12T07:12:06.393Z,1.50
2018-02-12T07:14:32.923Z,1.60
2018-02-12T07:17:00.175Z,1.60
2018-02-12T07:24:22.923Z,1.80
2018-02-12T07:26:49.531Z,2.20
2018-02-12T07:29:16.793Z,1.80
2018-02-12T07:31:44.492Z,1.80
2018-02-12T07:34:11.815Z,2.00
2018-02-12T07:36:38.332Z,2.10
2018-02-12T07:39:04.786Z,2.00
2018-02-12T07:41:31.988Z,2.10
2018-02-12T07:43:59.216Z,2.20
2018-02-12T07:48:54.087Z,2.20
2018-02-12T07:51:21.401Z,2.40
2018-02-12T07:53:48.627Z,2.50
2018-02-12T07:56:15.590Z,2.80
2018-02-12T07:58:43.090Z,2.60
2018-02-12T08:01:09.934Z,2.60
2018-02-12T08:03:36.796Z,2.60
2018-02-12T08:06:03.267Z,2.70
2018-02-12T08:10:58.651Z,2.60
2018-02-12T08:13:25.272Z,2.60
2018-02-12T08:15:52.573Z,2.60
2018-02-12T08:18:20.357Z,2.60
2018-02-12T08:20:47.723Z,2.70
2018-02-12T08:23:15.062Z,2.70
2018-02-12T08:25:42.413Z,2.70
2018-02-12T08:28:08.867Z,2.80
2018-02-12T08:33:04.860Z,2.60
2018-02-12T08:35:32.402Z,3.00
2018-02-12T08:42:55.218Z,3.20
2018-02-12T08:45:21.663Z,3.20
2018-02-12T08:50:16.622Z,2.90
2018-02-12T08:52:43.471Z,2.90
2018-02-12T08:55:11.593Z,2.90
2018-02-12T08:57:38.072Z,2.80
2018-02-12T09:00:05.037Z,3.00
2018-02-12T09:02:31.732Z,2.60
2018-02-12T09:04:58.969Z,2.90
2018-02-12T09:07:25.423Z,3.20
2018-02-12T09:09:52.820Z,2.90
2018-02-12T09:12:20.260Z,2.50
2018-02-12T09:14:46.720Z,2.80
2018-02-12T09:17:13.641Z,2.80
2018-02-12T09:19:40.133Z,3.00
2018-02-12T09:22:06.648Z,2.90
2018-02-12T09:24:33.462Z,3.00
2018-02-12T09:26:59.993Z,2.90
2018-02-12T09:31:54.886Z,2.30
2018-02-12T09:34:21.494Z,2.30
2018-02-12T09:36:49.108Z,2.70
2018-02-12T09:39:15.812Z,2.40
2018-02-12T09:41:42.450Z,2.50
2018-02-12T09:44:09.384Z,2.50
2018-02-12T09:46:36.470Z,2.90
2018-02-12T09:49:02.940Z,2.50
2018-02-12T09:51:29.416Z,2.40
2018-02-12T09:53:56.062Z,2.50
2018-02-12T09:56:22.590Z,2.50
2018-02-12T09:58:49.501Z,2.30
2018-02-12T10:01:17.105Z,2.50
2018-02-12T10:03:43.570Z,2.30
2018-02-12T10:06:10.432Z,2.30
2018-02-12T10:08:37.062Z,2.40
2018-02-12T10:11:03.619Z,2.40
2018-02-12T10:13:30.569Z,2.40
2018-02-12T10:15:57.853Z,2.50
2018-02-12T10:18:24.476Z,2.60
2018-02-12T10:20:51.193Z,2.50
2018-02-12T10:23:18.186Z,2.50
2018-02-12T10:25:44.621Z,2.50
2018-02-12T10:30:40.020Z,2.40
2018-02-12T10:33:06.532Z,2.40
2018-02-12T10:35:34.510Z,2.40
2018-02-12T10:38:02.212Z,2.30
2018-02-12T10:40:28.753Z,2.50
2018-02-12T10:42:55.274Z,2.30
2018-02-12T10:45:22.015Z,2.40
2018-02-12T10:47:48.878Z,2.50
2018-02-12T10:50:15.548Z,2.60
2018-02-12T10:52:43.361Z,2.60
2018-02-12T10:55:11.614Z,2.50
2018-02-12T10:57:38.119Z,2.60
2018-02-12T11:00:05.806Z,2.50
2018-02-12T11:02:33.073Z,2.30
2018-02-12T11:04:59.543Z,2.30
2018-02-12T11:07:26.412Z,2.30
2018-02-12T11:09:52.862Z,2.20
2018-02-12T11:14:48.416Z,2.10
2018-02-12T11:17:14.903Z,1.80
2018-02-12T11:19:44.398Z,2.00
2018-02-12T11:22:11.848Z,1.80
2018-02-12T11:24:39.180Z,1.50
2018-02-12T11:27:07.738Z,1.60
2018-02-12T11:29:34.734Z,1.50
2018-02-12T11:32:01.182Z,1.50
2018-02-12T11:34:28.429Z,1.30
2018-02-12T11:36:56.522Z,1.20
2018-02-12T11:39:22.984Z,1.10
2018-02-12T11:41:51.462Z,1.00
2018-02-12T11:44:18.333Z,0.70
2018-02-12T11:46:46.262Z,0.80
2018-02-12T11:49:12.892Z,0.70
2018-02-12T11:51:40.504Z,0.70
2018-02-12T11:54:09.665Z,0.60
2018-02-12T11:56:38.199Z,0.60
2018-02-12T11:59:04.846Z,0.60
2018-02-12T12:01:31.382Z,0.40
2018-02-12T12:03:58.236Z,0.60
2018-02-12T12:06:25.963Z,0.60
2018-02-12T12:13:49.360Z,0.60
2018-02-12T12:16:15.957Z,0.80
2018-02-12T12:18:43.401Z,0.70
2018-02-12T12:21:10.918Z,0.80
2018-02-12T12:23:37.528Z,0.70
2018-02-12T12:26:04.198Z,0.80
2018-02-12T12:28:31.473Z,0.80
2018-02-12T12:30:58.012Z,0.90
2018-02-12T12:33:24.624Z,1.10
2018-02-12T12:35:52.435Z,1.20
2018-02-12T12:38:19.475Z,1.30
2018-02-12T12:40:45.991Z,1.60
2018-02-12T12:45:41.186Z,1.90
2018-02-12T12:48:09.219Z,2.10
2018-02-12T12:50:37.325Z,2.10
2018-02-12T12:53:04.099Z,2.20
2018-02-12T12:57:59.037Z,2.20
2018-02-12T13:00:26.414Z,2.10
2018-02-12T13:02:54.540Z,2.10
2018-02-12T13:05:22.568Z,2.10
2018-02-12T13:07:50.938Z,2.00
2018-02-12T13:12:47.457Z,2.30
2018-02-12T13:15:13.909Z,2.40
2018-02-12T13:17:41.335Z,2.40
2018-02-12T13:20:07.983Z,2.50
2018-02-12T13:22:34.500Z,2.60
2018-02-12T13:25:01.000Z,2.60
2018-02-12T13:27:27.932Z,2.60
2018-02-12T13:29:54.868Z,2.60
2018-02-12T13:34:49.694Z,3.10
2018-02-12T13:37:16.216Z,2.90
2018-02-12T13:42:35.915Z,2.40
2018-02-12T13:50:25.640Z,2.90
2018-02-12T14:25:56.871Z,3.30
2018-02-12T14:33:30.827Z,3.90
2018-02-12T15:14:18.960Z,3.70
2018-02-12T15:37:17.218Z,3.10
2018-02-12T15:47:25.057Z,2.70
2018-02-12T16:02:54.869Z,2.30
2018-02-12T16:38:29.588Z,1.80
2018-02-12T16:40:55.922Z,1.80
2018-02-12T16:45:51.851Z,1.90
2018-02-12T17:11:09.525Z,1.60
2018-02-12T17:23:49.148Z,1.50
2018-02-12T17:51:47.231Z,1.40
2018-02-12T18:04:26.701Z,1.30
2018-02-12T18:11:59.594Z,1.30
2018-02-12T18:27:08.882Z,1.10
2018-02-12T18:39:48.500Z,1.00
2018-02-12T18:42:16.582Z,1.10
2018-02-12T18:49:52.336Z,0.90
2018-02-12T19:02:30.763Z,0.80
2018-02-12T19:15:02.894Z,0.90
2018-02-12T19:20:04.038Z,0.80
2018-02-12T19:40:15.554Z,1.00
2018-02-12T19:52:56.029Z,0.90
2018-02-12T19:55:23.658Z,0.70
2018-02-12T20:05:33.293Z,0.70
2018-02-12T20:10:35.516Z,0.80
2018-02-12T20:38:42.278Z,0.70
2018-02-12T20:43:45.702Z,0.50
2018-02-12T20:58:52.934Z,0.60
2018-02-12T21:01:19.476Z,0.60
2018-02-12T21:03:47.131Z,0.60
2018-02-12T21:08:42.251Z,0.30
2018-02-12T21:11:08.724Z,0.50
2018-02-12T21:13:35.138Z,0.70
2018-02-12T21:16:02.350Z,0.50
2018-02-12T21:18:28.875Z,0.50
2018-02-12T21:20:56.327Z,0.50
2018-02-12T21:23:23.796Z,0.50
2018-02-12T21:25:50.622Z,0.50
2018-02-12T21:28:17.760Z,0.40
2018-02-12T21:30:44.266Z,0.50
2018-02-12T21:33:11.621Z,0.40
2018-02-12T21:35:44.379Z,0.60
2018-02-12T21:38:10.921Z,0.40
2018-02-12T21:40:37.462Z,0.30
2018-02-12T21:43:04.054Z,0.30
2018-02-12T21:45:30.540Z,0.20
2018-02-12T21:47:57.760Z,0.30
2018-02-12T21:50:24.408Z,0.30
2018-02-12T21:52:51.633Z,0.30
2018-02-12T21:55:19.083Z,0.30
2018-02-12T21:57:45.809Z,0.10
2018-02-12T22:00:13.414Z,0.20
2018-02-12T22:02:39.923Z,0.20
2018-02-12T22:05:06.580Z,0.20
2018-02-12T22:07:33.166Z,0.10
2018-02-12T22:10:00.753Z,0.00
2018-02-12T22:12:27.980Z,0.20
2018-02-12T22:14:57.241Z,0.10
2018-02-12T22:17:23.710Z,0.20
2018-02-12T22:19:50.796Z,0.20
2018-02-12T22:22:17.308Z,0.20
2018-02-12T22:24:44.813Z,0.20
2018-02-12T22:27:12.950Z,0.10
2018-02-12T22:29:39.446Z,0.10
2018-02-12T22:32:09.417Z,0.20
2018-02-12T22:34:36.185Z,0.20
2018-02-12T22:37:02.789Z,0.10
2018-02-12T22:39:30.025Z,0.20
2018-02-12T22:41:57.557Z,0.00
2018-02-12T22:44:25.426Z,0.10
2018-02-12T22:46:52.608Z,0.00
2018-02-12T22:49:20.530Z,0.10
2018-02-12T22:51:48.053Z,0.10
2018-02-12T22:54:15.740Z,0.10
2018-02-12T22:56:42.628Z,0.10
2018-02-12T22:59:09.093Z,0.10
2018-02-12T23:01:37.691Z,0.10
2018-02-12T23:04:04.548Z,0.00
2018-02-12T23:06:31.022Z,-0.10
2018-02-12T23:08:57.589Z,0.00
2018-02-12T23:11:24.502Z,0.20
2018-02-12T23:13:51.272Z,0.00
2018-02-12T23:16:17.794Z,0.00
2018-02-12T23:18:45.472Z,0.00
2018-02-12T23:21:12.347Z,-0.20
2018-02-12T23:23:40.307Z,-0.10
2018-02-12T23:26:07.604Z,0.00
2018-02-12T23:28:34.989Z,0.40
2018-02-12T23:31:01.510Z,0.00
2018-02-12T23:33:28.223Z,0.20
2018-02-12T23:35:54.734Z,-0.10
2018-02-12T23:38:21.574Z,0.00
2018-02-12T23:40:49.004Z,0.00
2018-02-12T23:43:15.889Z,-0.30
2018-02-12T23:45:43.413Z,-0.10
2018-02-12T23:48:10.244Z,-0.20
2018-02-12T23:50:36.717Z,-0.20
2018-02-12T23:53:04.301Z,-0.30
2018-02-12T23:55:32.224Z,-0.20
2018-02-12T23:57:58.725Z,-0.30
